createdAt,value
2018-10-17T00:00:28.829Z,12.4
2018-10-17T00:01:37.467Z,12.36
2018-10-17T00:02:46.105Z,12.39
2018-10-17T00:03:54.732Z,12.43
2018-10-17T00:05:03.418Z,12.35
2018-10-17T00:06:12.001Z,12.3
2018-10-17T00:07:20.639Z,12.39
2018-10-17T00:08:29.536Z,12.39
2018-10-17T00:09:38.436Z,12.39
2018-10-17T00:10:47.069Z,12.39
2018-10-17T00:11:55.704Z,12.37
2018-10-17T00:13:04.409Z,12.28
2018-10-17T00:14:12.971Z,12.33
2018-10-17T00:15:21.604Z,12.29
2018-10-17T00:16:30.235Z,12.26
2018-10-17T00:17:38.874Z,12.23
2018-10-17T00:18:47.507Z,12.25
2018-10-17T00:19:56.140Z,12.26
2018-10-17T00:21:04.770Z,12.3
2018-10-17T00:22:13.671Z,12.28
2018-10-17T00:23:22.304Z,12.26
2018-10-17T00:24:30.938Z,12.23
2018-10-17T00:25:39.570Z,12.3
2018-10-17T00:26:48.215Z,12.36
2018-10-17T00:27:57.107Z,12.29
2018-10-17T00:29:06.135Z,12.3
2018-10-17T00:30:14.631Z,12.37
2018-10-17T00:31:23.271Z,12.28
2018-10-17T00:32:32.169Z,12.26
2018-10-17T00:33:40.811Z,12.26
2018-10-17T00:34:49.447Z,12.28
2018-10-17T00:35:58.076Z,12.28
2018-10-17T00:37:06.727Z,12.37
2018-10-17T00:38:15.949Z,12.36
2018-10-17T00:39:24.586Z,12.3
2018-10-17T00:40:33.285Z,12.36
2018-10-17T00:41:41.853Z,12.33
2018-10-17T00:42:50.548Z,12.39
2018-10-17T00:43:59.394Z,12.26
2018-10-17T00:45:08.293Z,12.28
2018-10-17T00:46:16.926Z,12.39
2018-10-17T00:47:25.559Z,12.25
2018-10-17T00:48:34.198Z,12.36
2018-10-17T00:49:42.829Z,12.37
2018-10-17T00:50:51.464Z,12.39
2018-10-17T00:52:00.363Z,12.28
2018-10-17T00:53:09.041Z,12.36
2018-10-17T00:54:17.631Z,12.36
2018-10-17T00:55:26.270Z,12.3
2018-10-17T00:56:34.902Z,12.25
2018-10-17T00:57:43.811Z,12.3
2018-10-17T00:58:52.448Z,12.33
2018-10-17T01:00:01.077Z,12.28
2018-10-17T01:01:09.802Z,12.18
2018-10-17T01:02:18.781Z,12.17
2018-10-17T01:03:27.412Z,12.12
2018-10-17T01:04:36.317Z,12.11
2018-10-17T01:05:44.954Z,12.15
2018-10-17T01:06:53.618Z,12.12
2018-10-17T01:08:02.515Z,12.18
2018-10-17T01:09:11.148Z,12.21
2018-10-17T01:10:20.047Z,12.2
2018-10-17T01:11:28.942Z,12.17
2018-10-17T01:12:37.579Z,12.14
2018-10-17T01:13:46.213Z,12.2
2018-10-17T01:14:55.106Z,12.12
2018-10-17T01:16:03.734Z,12.2
2018-10-17T01:17:12.485Z,12.2
2018-10-17T01:18:21.007Z,12.21
2018-10-17T01:19:29.638Z,12.18
2018-10-17T01:20:38.534Z,12.21
2018-10-17T01:21:47.172Z,12.21
2018-10-17T01:22:55.822Z,12.12
2018-10-17T01:24:04.439Z,12.15
2018-10-17T01:25:13.431Z,12.17
2018-10-17T01:26:21.977Z,12.1
2018-10-17T01:27:30.611Z,12.12
2018-10-17T01:28:39.250Z,12.1
2018-10-17T01:29:47.880Z,12.07
2018-10-17T01:30:56.581Z,12.03
2018-10-17T01:32:05.141Z,12.03
2018-10-17T01:33:13.776Z,12.07
2018-10-17T01:34:22.414Z,12.05
2018-10-17T01:35:31.044Z,11.97
2018-10-17T01:36:39.676Z,11.93
2018-10-17T01:37:48.309Z,11.91
2018-10-17T01:38:56.950Z,11.91
2018-10-17T01:40:05.581Z,11.97
2018-10-17T01:41:14.357Z,11.85
2018-10-17T01:42:23.335Z,11.95
2018-10-17T01:43:31.974Z,11.85
2018-10-17T01:44:40.869Z,11.93
2018-10-17T01:45:49.503Z,11.93
2018-10-17T01:46:58.456Z,11.83
2018-10-17T01:48:07.066Z,11.8
2018-10-17T01:49:15.746Z,11.91
2018-10-17T01:50:24.337Z,11.83
2018-10-17T01:51:32.977Z,11.83
2018-10-17T01:52:41.600Z,11.78
2018-10-17T01:53:50.519Z,11.7
2018-10-17T01:54:59.155Z,11.7
2018-10-17T01:56:07.783Z,11.77
2018-10-17T01:57:16.408Z,11.73
2018-10-17T01:58:25.056Z,11.78
2018-10-17T01:59:33.950Z,11.74
2018-10-17T02:00:42.585Z,11.71
2018-10-17T02:01:51.212Z,11.76
2018-10-17T02:03:00.120Z,11.67
2018-10-17T02:04:08.759Z,11.74
2018-10-17T02:05:17.526Z,11.67
2018-10-17T02:06:26.028Z,11.71
2018-10-17T02:07:34.664Z,11.63
2018-10-17T02:08:43.294Z,11.65
2018-10-17T02:09:52.189Z,11.62
2018-10-17T02:11:01.166Z,11.63
2018-10-17T02:12:10.337Z,11.63
2018-10-17T02:13:19.631Z,11.65
2018-10-17T02:14:28.261Z,11.53
2018-10-17T02:15:36.906Z,11.53
2018-10-17T02:16:45.533Z,11.56
2018-10-17T02:17:54.166Z,11.56
2018-10-17T02:19:03.091Z,11.6
2018-10-17T02:20:11.972Z,11.58
2018-10-17T02:21:20.606Z,11.53
2018-10-17T02:22:29.227Z,11.62
2018-10-17T02:23:37.861Z,11.59
2018-10-17T02:24:46.489Z,11.52
2018-10-17T02:25:55.129Z,11.6
2018-10-17T02:27:03.758Z,11.6
2018-10-17T02:28:12.396Z,11.59
2018-10-17T02:29:21.019Z,11.56
2018-10-17T02:30:29.664Z,11.59
2018-10-17T02:31:39.093Z,11.6
2018-10-17T02:32:47.998Z,11.55
2018-10-17T02:33:56.622Z,11.53
2018-10-17T02:35:05.290Z,11.58
2018-10-17T02:36:13.899Z,11.6
2018-10-17T02:37:22.947Z,11.59
2018-10-17T02:38:31.574Z,11.56
2018-10-17T02:39:40.297Z,11.59
2018-10-17T02:40:48.857Z,11.56
2018-10-17T02:41:57.489Z,11.68
2018-10-17T02:43:06.166Z,11.6
2018-10-17T02:44:14.753Z,11.68
2018-10-17T02:45:23.389Z,11.68
2018-10-17T02:46:32.018Z,11.62
2018-10-17T02:47:40.660Z,11.59
2018-10-17T02:48:49.292Z,11.63
2018-10-17T02:49:57.930Z,11.68
2018-10-17T02:51:06.565Z,11.62
2018-10-17T02:52:15.459Z,11.67
2018-10-17T02:53:24.372Z,11.58
2018-10-17T02:54:33.011Z,11.59
2018-10-17T02:55:41.650Z,11.62
2018-10-17T02:56:50.554Z,11.59
2018-10-17T02:57:59.470Z,11.58
2018-10-17T02:59:08.876Z,11.52
2018-10-17T03:00:18.131Z,11.44
2018-10-17T03:01:26.769Z,11.53
2018-10-17T03:02:35.409Z,11.49
2018-10-17T03:03:44.049Z,11.4
2018-10-17T03:04:52.713Z,11.37
2018-10-17T03:06:01.345Z,11.31
2018-10-17T03:07:10.080Z,11.37
2018-10-17T03:08:18.882Z,11.34
2018-10-17T03:09:27.528Z,11.41
2018-10-17T03:10:36.445Z,11.43
2018-10-17T03:11:45.084Z,11.43
2018-10-17T03:12:53.768Z,11.41
2018-10-17T03:14:02.645Z,11.35
2018-10-17T03:15:11.290Z,11.43
2018-10-17T03:16:19.927Z,11.4
2018-10-17T03:17:28.574Z,11.38
2018-10-17T03:18:37.476Z,11.4
2018-10-17T03:19:46.910Z,11.3
2018-10-17T03:20:55.561Z,11.33
2018-10-17T03:22:04.460Z,11.31
2018-10-17T03:23:14.074Z,11.33
2018-10-17T03:24:22.571Z,11.31
2018-10-17T03:25:31.218Z,11.31
2018-10-17T03:26:39.861Z,11.27
2018-10-17T03:27:49.041Z,11.27
2018-10-17T03:28:57.672Z,11.27
2018-10-17T03:30:06.320Z,11.33
2018-10-17T03:31:15.959Z,11.3
2018-10-17T03:32:24.518Z,11.19
2018-10-17T03:33:33.157Z,11.31
2018-10-17T03:34:42.066Z,11.25
2018-10-17T03:35:50.726Z,11.34
2018-10-17T03:36:59.420Z,11.23
2018-10-17T03:38:08.001Z,11.27
2018-10-17T03:39:17.174Z,11.26
2018-10-17T03:40:25.815Z,11.19
2018-10-17T03:41:34.458Z,11.25
2018-10-17T03:42:43.108Z,11.18
2018-10-17T03:43:51.746Z,11.19
2018-10-17T03:45:00.654Z,11.18
2018-10-17T03:46:09.303Z,11.15
2018-10-17T03:47:17.976Z,11.07
2018-10-17T03:48:26.579Z,11.05
2018-10-17T03:49:35.229Z,11.1
2018-10-17T03:50:44.136Z,11.08
2018-10-17T03:51:52.786Z,11.07
2018-10-17T03:53:01.433Z,11.05
2018-10-17T03:54:10.063Z,11.04
2018-10-17T03:55:19.076Z,11.05
2018-10-17T03:56:27.681Z,11.04
2018-10-17T03:57:36.607Z,11.01
2018-10-17T03:58:45.508Z,11.07
2018-10-17T03:59:54.153Z,11.04
2018-10-17T04:01:02.833Z,11.01
2018-10-17T04:02:11.435Z,11.01
2018-10-17T04:03:20.506Z,11.02
2018-10-17T04:04:29.159Z,10.98
2018-10-17T04:05:38.057Z,10.89
2018-10-17T04:06:46.711Z,10.87
2018-10-17T04:07:55.348Z,10.89
2018-10-17T04:09:03.994Z,10.95
2018-10-17T04:10:12.892Z,10.87
2018-10-17T04:11:21.537Z,10.87
2018-10-17T04:12:30.183Z,10.84
2018-10-17T04:13:39.090Z,10.87
2018-10-17T04:14:47.741Z,10.87
2018-10-17T04:15:56.641Z,10.84
2018-10-17T04:17:05.315Z,10.89
2018-10-17T04:18:13.927Z,10.89
2018-10-17T04:19:22.599Z,10.89
2018-10-17T04:20:31.492Z,10.83
2018-10-17T04:21:40.146Z,10.86
2018-10-17T04:22:48.777Z,10.84
2018-10-17T04:23:57.428Z,10.9
2018-10-17T04:25:06.071Z,10.89
2018-10-17T04:26:14.701Z,10.86
2018-10-17T04:27:23.341Z,10.89
2018-10-17T04:28:31.989Z,10.92
2018-10-17T04:29:40.898Z,10.9
2018-10-17T04:30:50.066Z,10.89
2018-10-17T04:31:58.970Z,10.94
2018-10-17T04:33:07.609Z,10.92
2018-10-17T04:34:16.267Z,10.95
2018-10-17T04:35:25.170Z,10.9
2018-10-17T04:36:33.829Z,10.97
2018-10-17T04:37:42.730Z,10.89
2018-10-17T04:38:51.380Z,11.02
2018-10-17T04:40:00.029Z,10.86
2018-10-17T04:41:08.739Z,10.97
2018-10-17T04:42:17.648Z,10.92
2018-10-17T04:43:26.297Z,10.9
2018-10-17T04:44:34.939Z,10.87
2018-10-17T04:45:43.577Z,10.87
2018-10-17T04:46:52.237Z,10.89
2018-10-17T04:48:00.869Z,10.86
2018-10-17T04:49:09.608Z,10.87
2018-10-17T04:50:18.782Z,10.77
2018-10-17T04:51:27.428Z,10.83
2018-10-17T04:52:36.619Z,10.87
2018-10-17T04:53:45.255Z,10.86
2018-10-17T04:54:54.196Z,10.84
2018-10-17T04:56:02.806Z,10.92
2018-10-17T04:57:11.456Z,10.92
2018-10-17T04:58:20.092Z,10.87
2018-10-17T04:59:28.739Z,10.94
2018-10-17T05:00:37.373Z,10.89
2018-10-17T05:01:46.027Z,10.94
2018-10-17T05:02:54.669Z,10.97
2018-10-17T05:04:03.313Z,10.92
2018-10-17T05:05:12.020Z,10.97
2018-10-17T05:06:20.592Z,10.97
2018-10-17T05:07:29.238Z,10.98
2018-10-17T05:08:37.889Z,10.98
2018-10-17T05:09:46.533Z,11
2018-10-17T05:10:55.211Z,11.08
2018-10-17T05:12:03.819Z,11.04
2018-10-17T05:13:12.655Z,11.01
2018-10-17T05:14:21.661Z,11.1
2018-10-17T05:15:30.293Z,11.12
2018-10-17T05:16:38.940Z,11.12
2018-10-17T05:17:47.577Z,11.07
2018-10-17T05:18:56.293Z,11.15
2018-10-17T05:20:05.422Z,11.08
2018-10-17T05:21:14.061Z,11.07
2018-10-17T05:22:22.707Z,11.16
2018-10-17T05:23:31.619Z,11.13
2018-10-17T05:24:40.783Z,11.08
2018-10-17T05:25:49.426Z,11.13
2018-10-17T05:26:58.067Z,11.13
2018-10-17T05:28:06.707Z,11.15
2018-10-17T05:29:15.499Z,11.07
2018-10-17T05:30:23.994Z,11.16
2018-10-17T05:31:32.641Z,11.19
2018-10-17T05:32:41.277Z,11.12
2018-10-17T05:33:49.924Z,11.16
2018-10-17T05:34:58.593Z,11.18
2018-10-17T05:36:07.542Z,11.1
2018-10-17T05:37:16.294Z,11.16
2018-10-17T05:38:25.273Z,11.12
2018-10-17T05:39:33.911Z,11.12
2018-10-17T05:40:42.594Z,11.16
2018-10-17T05:41:51.190Z,11.13
2018-10-17T05:42:59.873Z,11.13
2018-10-17T05:44:08.486Z,11.18
2018-10-17T05:45:17.391Z,11.05
2018-10-17T05:46:26.034Z,11.12
2018-10-17T05:47:34.673Z,11.05
2018-10-17T05:48:43.312Z,11.07
2018-10-17T05:49:51.954Z,11.04
2018-10-17T05:51:00.602Z,11
2018-10-17T05:52:09.664Z,11.08
2018-10-17T05:53:18.298Z,11.02
2018-10-17T05:54:26.937Z,11.07
2018-10-17T05:55:35.666Z,11.04
2018-10-17T05:56:44.602Z,11.05
2018-10-17T05:57:53.242Z,11.02
2018-10-17T05:59:01.914Z,11.07
2018-10-17T06:00:10.532Z,11.04
2018-10-17T06:01:19.298Z,11.04
2018-10-17T06:02:28.601Z,11.02
2018-10-17T06:03:37.594Z,11
2018-10-17T06:04:46.234Z,11.04
2018-10-17T06:05:54.889Z,11.01
2018-10-17T06:07:03.580Z,10.89
2018-10-17T06:08:12.174Z,10.94
2018-10-17T06:09:20.812Z,10.95
2018-10-17T06:10:30.250Z,10.92
2018-10-17T06:11:38.892Z,10.84
2018-10-17T06:12:47.536Z,10.98
2018-10-17T06:13:56.174Z,10.84
2018-10-17T06:15:04.821Z,10.94
2018-10-17T06:16:13.991Z,10.95
2018-10-17T06:17:22.756Z,10.89
2018-10-17T06:18:31.271Z,10.97
2018-10-17T06:19:39.915Z,10.92
2018-10-17T06:20:48.557Z,10.95
2018-10-17T06:21:57.205Z,10.87
2018-10-17T06:23:05.889Z,10.89
2018-10-17T06:24:14.489Z,10.97
2018-10-17T06:25:23.134Z,10.92
2018-10-17T06:26:32.046Z,11
2018-10-17T06:27:40.697Z,10.94
2018-10-17T06:28:49.335Z,11.07
2018-10-17T06:29:57.981Z,11
2018-10-17T06:31:06.735Z,11.04
2018-10-17T06:32:15.269Z,11.07
2018-10-17T06:33:23.907Z,11.07
2018-10-17T06:34:32.585Z,11.13
2018-10-17T06:35:41.190Z,11.15
2018-10-17T06:36:49.834Z,11.15
2018-10-17T06:37:58.731Z,11.1
2018-10-17T06:39:07.375Z,11.18
2018-10-17T06:40:16.014Z,11.22
2018-10-17T06:41:24.653Z,11.2
2018-10-17T06:42:33.302Z,11.23
2018-10-17T06:43:43.048Z,11.23
2018-10-17T06:44:51.988Z,11.26
2018-10-17T06:46:00.624Z,11.33
2018-10-17T06:47:09.313Z,11.31
2018-10-17T06:48:17.909Z,11.27
2018-10-17T06:49:26.558Z,11.33
2018-10-17T06:50:35.189Z,11.34
2018-10-17T06:51:44.105Z,11.34
2018-10-17T06:52:52.809Z,11.31
2018-10-17T06:54:03.052Z,11.33
2018-10-17T06:55:11.714Z,11.31
2018-10-17T06:56:20.643Z,11.37
2018-10-17T06:57:29.301Z,11.38
2018-10-17T06:58:37.960Z,11.4
2018-10-17T06:59:47.134Z,11.49
2018-10-17T07:00:55.825Z,11.49
2018-10-17T07:02:05.047Z,11.52
2018-10-17T07:03:14.245Z,11.56
2018-10-17T07:04:22.897Z,11.48
2018-10-17T07:05:31.532Z,11.56
2018-10-17T07:06:40.178Z,11.59
2018-10-17T07:07:48.815Z,11.65
2018-10-17T07:08:57.467Z,11.71
2018-10-17T07:10:06.101Z,11.68
2018-10-17T07:11:14.943Z,11.68
2018-10-17T07:12:23.850Z,11.71
2018-10-17T07:13:32.502Z,11.78
2018-10-17T07:14:41.143Z,11.77
2018-10-17T07:15:49.835Z,11.76
2018-10-17T07:16:58.486Z,11.81
2018-10-17T07:18:07.063Z,11.88
2018-10-17T07:19:16.742Z,11.83
2018-10-17T07:20:25.536Z,11.89
2018-10-17T07:21:34.187Z,11.89
2018-10-17T07:22:43.084Z,11.97
2018-10-17T07:23:51.736Z,12.12
2018-10-17T07:25:00.444Z,12.15
2018-10-17T07:26:09.385Z,12.14
2018-10-17T07:27:18.018Z,12.2
2018-10-17T07:28:26.670Z,12.12
2018-10-17T07:29:35.688Z,12.3
2018-10-17T07:30:44.815Z,12.21
2018-10-17T07:31:53.448Z,12.37
2018-10-17T07:33:02.097Z,12.53
2018-10-17T07:34:10.740Z,12.55
2018-10-17T07:35:19.384Z,12.54
2018-10-17T07:36:28.030Z,12.58
2018-10-17T07:37:36.665Z,12.65
2018-10-17T07:38:45.311Z,12.68
2018-10-17T07:39:53.957Z,12.7
2018-10-17T07:41:02.604Z,12.76
2018-10-17T07:42:11.275Z,12.83
2018-10-17T07:43:20.530Z,12.9
2018-10-17T07:44:29.172Z,12.99
2018-10-17T07:45:37.889Z,13.01
2018-10-17T07:46:46.459Z,13.2
2018-10-17T07:47:55.158Z,13.17
2018-10-17T07:49:04.606Z,13.28
2018-10-17T07:50:13.779Z,13.28
2018-10-17T07:51:22.422Z,13.43
2018-10-17T07:52:31.065Z,13.42
2018-10-17T07:53:39.750Z,13.42
2018-10-17T07:54:48.355Z,13.55
2018-10-17T07:55:56.997Z,13.57
2018-10-17T07:57:05.641Z,13.54
2018-10-17T07:58:14.554Z,13.62
2018-10-17T07:59:23.194Z,13.61
2018-10-17T08:00:32.285Z,13.8
2018-10-17T08:01:40.753Z,13.73
2018-10-17T08:02:49.395Z,13.79
2018-10-17T08:03:58.036Z,13.8
2018-10-17T08:05:06.689Z,13.85
2018-10-17T08:06:15.945Z,13.85
2018-10-17T08:07:24.497Z,13.93
2018-10-17T08:08:33.136Z,13.83
2018-10-17T08:09:42.052Z,13.91
2018-10-17T08:10:50.698Z,13.97
2018-10-17T08:11:59.348Z,14.03
2018-10-17T08:13:08.266Z,13.95
2018-10-17T08:14:17.419Z,13.98
2018-10-17T08:15:26.731Z,14.05
2018-10-17T08:16:35.377Z,14.13
2018-10-17T08:17:44.026Z,14.08
2018-10-17T08:18:52.665Z,14.08
2018-10-17T08:20:01.311Z,14.19
2018-10-17T08:21:10.016Z,14.23
2018-10-17T08:22:18.603Z,14.22
2018-10-17T08:23:27.244Z,14.22
2018-10-17T08:24:35.891Z,14.25
2018-10-17T08:25:44.535Z,14.28
2018-10-17T08:26:53.184Z,14.3
2018-10-17T08:28:01.828Z,14.28
2018-10-17T08:29:10.470Z,14.33
2018-10-17T08:30:19.654Z,14.36
2018-10-17T08:31:28.206Z,14.4
2018-10-17T08:32:37.113Z,14.48
2018-10-17T08:33:45.757Z,14.41
2018-10-17T08:34:54.402Z,14.49
2018-10-17T08:36:03.850Z,14.43
2018-10-17T08:37:12.793Z,14.4
2018-10-17T08:38:22.034Z,14.38
2018-10-17T08:39:30.954Z,14.43
2018-10-17T08:40:39.863Z,14.48
2018-10-17T08:41:48.504Z,14.45
2018-10-17T08:42:57.414Z,14.52
2018-10-17T08:44:06.370Z,14.56
2018-10-17T08:45:15.062Z,14.56
2018-10-17T08:46:23.625Z,14.53
2018-10-17T08:47:32.273Z,14.58
2018-10-17T08:48:40.937Z,14.7
2018-10-17T08:49:49.842Z,14.73
2018-10-17T08:50:58.498Z,14.71
2018-10-17T08:52:07.491Z,14.73
2018-10-17T08:53:16.167Z,14.85
2018-10-17T08:54:24.808Z,14.89
2018-10-17T08:55:33.460Z,14.9
2018-10-17T08:56:42.104Z,14.93
2018-10-17T08:57:50.831Z,14.94
2018-10-17T08:58:59.399Z,15.08
2018-10-17T09:00:08.313Z,14.99
2018-10-17T09:01:16.956Z,15.1
2018-10-17T09:02:25.603Z,15.18
2018-10-17T09:03:34.242Z,15.19
2018-10-17T09:04:42.886Z,15.29
2018-10-17T09:05:51.536Z,15.33
2018-10-17T09:07:00.447Z,15.5
2018-10-17T09:08:09.160Z,15.65
2018-10-17T09:09:17.799Z,15.48
2018-10-17T09:10:26.522Z,15.66
2018-10-17T09:11:35.492Z,15.72
2018-10-17T09:12:44.250Z,15.88
2018-10-17T09:13:53.013Z,15.91
2018-10-17T09:15:01.976Z,16.06
2018-10-17T09:16:10.904Z,16.08
2018-10-17T09:17:21.389Z,16.18
2018-10-17T09:18:30.032Z,16.16
2018-10-17T09:19:38.912Z,16.31
2018-10-17T09:20:47.567Z,16.24
2018-10-17T09:21:56.373Z,16.29
2018-10-17T09:23:04.616Z,16.37
2018-10-17T09:24:13.569Z,16.57
2018-10-17T09:25:22.673Z,16.51
2018-10-17T09:26:31.582Z,16.57
2018-10-17T09:27:40.231Z,16.65
2018-10-17T09:28:48.876Z,16.74
2018-10-17T09:29:57.656Z,16.76
2018-10-17T09:31:06.534Z,16.82
2018-10-17T09:32:15.186Z,17.01
2018-10-17T09:33:23.824Z,16.92
2018-10-17T09:34:32.472Z,17.09
2018-10-17T09:35:41.198Z,17.22
2018-10-17T09:36:50.653Z,17.3
2018-10-17T09:37:59.296Z,17.38
2018-10-17T09:39:07.949Z,17.38
2018-10-17T09:40:16.666Z,17.47
2018-10-17T09:41:25.235Z,17.5
2018-10-17T09:42:34.155Z,17.49
2018-10-17T09:43:42.804Z,17.59
2018-10-17T09:44:51.452Z,17.65
2018-10-17T09:46:00.675Z,17.65
2018-10-17T09:47:09.296Z,17.76
2018-10-17T09:48:18.133Z,17.79
2018-10-17T09:49:26.591Z,17.8
2018-10-17T09:50:35.231Z,17.8
2018-10-17T09:51:43.882Z,17.78
2018-10-17T09:52:52.794Z,17.88
2018-10-17T09:54:01.514Z,17.94
2018-10-17T09:55:10.084Z,17.93
2018-10-17T09:56:18.729Z,18.06
2018-10-17T09:57:27.387Z,18.09
2018-10-17T09:58:36.031Z,18.15
2018-10-17T09:59:44.670Z,18
2018-10-17T10:00:53.311Z,17.98
2018-10-17T10:02:01.965Z,18.15
2018-10-17T10:03:10.882Z,18.12
2018-10-17T10:04:19.586Z,18.13
2018-10-17T10:05:28.177Z,18.21
2018-10-17T10:06:36.827Z,18.36
2018-10-17T10:07:45.466Z,18.3
2018-10-17T10:08:54.124Z,18.36
2018-10-17T10:10:02.796Z,18.39
2018-10-17T10:11:11.470Z,18.42
2018-10-17T10:12:21.016Z,18.45
2018-10-17T10:13:29.673Z,18.45
2018-10-17T10:14:38.323Z,18.45
2018-10-17T10:15:47.228Z,18.51
2018-10-17T10:16:55.869Z,18.52
2018-10-17T10:18:04.521Z,18.49
2018-10-17T10:19:13.171Z,18.51
2018-10-17T10:20:22.091Z,18.55
2018-10-17T10:21:30.736Z,18.58
2018-10-17T10:22:39.370Z,18.55
2018-10-17T10:23:48.606Z,18.57
2018-10-17T10:24:58.298Z,18.7
2018-10-17T10:26:06.830Z,18.7
2018-10-17T10:27:15.466Z,18.73
2018-10-17T10:28:24.584Z,18.76
2018-10-17T10:29:33.575Z,18.71
2018-10-17T10:30:42.250Z,18.81
2018-10-17T10:31:50.930Z,18.85
2018-10-17T10:32:59.580Z,18.78
2018-10-17T10:34:08.630Z,18.82
2018-10-17T10:35:17.223Z,18.92
2018-10-17T10:36:25.868Z,18.94
2018-10-17T10:37:34.544Z,19.04
2018-10-17T10:38:43.190Z,18.98
2018-10-17T10:39:51.894Z,19.11
2018-10-17T10:41:00.488Z,19.08
2018-10-17T10:42:09.196Z,19.17
2018-10-17T10:43:17.777Z,19.17
2018-10-17T10:44:26.578Z,19.22
2018-10-17T10:45:35.359Z,19.3
2018-10-17T10:46:43.950Z,19.37
2018-10-17T10:47:52.663Z,19.35
2018-10-17T10:49:01.660Z,19.37
2018-10-17T10:50:10.392Z,19.48
2018-10-17T10:51:18.974Z,19.56
2018-10-17T10:52:28.128Z,19.52
2018-10-17T10:53:36.769Z,19.47
2018-10-17T10:54:45.694Z,19.56
2018-10-17T10:55:54.350Z,19.62
2018-10-17T10:57:03.395Z,19.66
2018-10-17T10:58:12.059Z,19.71
2018-10-17T10:59:20.741Z,19.66
2018-10-17T11:00:29.274Z,19.66
2018-10-17T11:01:37.922Z,19.82
2018-10-17T11:02:46.575Z,19.84
2018-10-17T11:03:55.481Z,19.92
2018-10-17T11:05:04.184Z,19.96
2018-10-17T11:06:12.779Z,19.92
2018-10-17T11:07:21.690Z,19.99
2018-10-17T11:08:30.330Z,19.93
2018-10-17T11:09:38.979Z,19.96
2018-10-17T11:10:47.626Z,19.93
2018-10-17T11:11:56.277Z,19.92
2018-10-17T11:13:04.923Z,19.92
2018-10-17T11:14:13.759Z,19.84
2018-10-17T11:15:22.216Z,19.81
2018-10-17T11:16:30.864Z,19.84
2018-10-17T11:17:39.514Z,19.84
2018-10-17T11:18:48.165Z,19.78
2018-10-17T11:19:56.811Z,19.81
2018-10-17T11:21:05.484Z,19.77
2018-10-17T11:22:14.464Z,19.72
2018-10-17T11:23:23.379Z,19.64
2018-10-17T11:24:32.034Z,19.72
2018-10-17T11:25:40.677Z,19.64
2018-10-17T11:26:49.332Z,19.67
2018-10-17T11:27:57.978Z,19.67
2018-10-17T11:29:07.110Z,19.63
2018-10-17T11:30:16.019Z,19.71
2018-10-17T11:31:24.687Z,19.67
2018-10-17T11:32:33.313Z,19.64
2018-10-17T11:33:41.965Z,19.72
2018-10-17T11:34:50.614Z,19.75
2018-10-17T11:35:59.259Z,19.72
2018-10-17T11:37:07.906Z,19.87
2018-10-17T11:38:16.560Z,19.78
2018-10-17T11:39:25.211Z,19.79
2018-10-17T11:40:33.993Z,19.85
2018-10-17T11:41:42.560Z,19.87
2018-10-17T11:42:51.288Z,19.94
2018-10-17T11:44:00.481Z,19.97
2018-10-17T11:45:09.574Z,20.08
2018-10-17T11:46:18.515Z,20
2018-10-17T11:47:27.459Z,20.15
2018-10-17T11:48:36.126Z,20.24
2018-10-17T11:49:44.769Z,20.3
2018-10-17T11:50:53.481Z,20.37
2018-10-17T11:52:02.111Z,20.48
2018-10-17T11:53:10.854Z,20.63
2018-10-17T11:54:19.413Z,20.7
2018-10-17T11:55:28.061Z,20.77
2018-10-17T11:56:36.714Z,20.83
2018-10-17T11:57:45.354Z,20.78
2018-10-17T11:58:54.029Z,20.86
2018-10-17T12:00:02.658Z,20.89
2018-10-17T12:01:11.576Z,20.89
2018-10-17T12:02:20.214Z,20.89
2018-10-17T12:03:28.960Z,20.89
2018-10-17T12:04:37.900Z,20.92
2018-10-17T12:05:46.406Z,20.9
2018-10-17T12:06:55.577Z,20.78
2018-10-17T12:08:04.238Z,20.8
2018-10-17T12:09:12.991Z,20.82
2018-10-17T12:10:21.544Z,20.75
2018-10-17T12:11:30.722Z,20.88
2018-10-17T12:12:39.269Z,20.78
2018-10-17T12:13:48.188Z,20.9
2018-10-17T12:14:56.859Z,20.9
2018-10-17T12:16:05.488Z,21.03
2018-10-17T12:17:14.128Z,20.98
2018-10-17T12:18:22.780Z,21
2018-10-17T12:19:31.427Z,21
2018-10-17T12:20:40.088Z,20.98
2018-10-17T12:21:48.728Z,20.98
2018-10-17T12:22:57.374Z,20.98
2018-10-17T12:24:06.378Z,21.01
2018-10-17T12:25:14.984Z,21.01
2018-10-17T12:26:23.629Z,21.03
2018-10-17T12:27:32.277Z,21.08
2018-10-17T12:28:41.004Z,21.04
2018-10-17T12:29:49.581Z,21.13
2018-10-17T12:30:58.239Z,21.1
2018-10-17T12:32:07.158Z,21.2
2018-10-17T12:33:15.881Z,21.14
2018-10-17T12:34:24.448Z,21.22
2018-10-17T12:35:33.099Z,21.17
2018-10-17T12:36:41.752Z,21.22
2018-10-17T12:37:50.396Z,21.28
2018-10-17T12:38:59.344Z,21.25
2018-10-17T12:40:08.058Z,21.3
2018-10-17T12:41:16.736Z,21.25
2018-10-17T12:42:25.265Z,21.2
2018-10-17T12:43:33.921Z,21.28
2018-10-17T12:44:42.594Z,21.33
2018-10-17T12:45:51.211Z,21.23
2018-10-17T12:46:59.862Z,21.35
2018-10-17T12:48:08.504Z,21.35
2018-10-17T12:49:17.336Z,21.32
2018-10-17T12:50:25.960Z,21.22
2018-10-17T12:51:34.456Z,21.22
2018-10-17T12:52:43.226Z,21.33
2018-10-17T12:53:52.235Z,21.38
2018-10-17T12:55:00.955Z,21.41
2018-10-17T12:56:10.394Z,21.35
2018-10-17T12:57:18.958Z,21.44
2018-10-17T12:58:27.614Z,21.38
2018-10-17T12:59:36.261Z,21.54
2018-10-17T13:00:44.931Z,21.6
2018-10-17T13:01:53.572Z,21.65
2018-10-17T13:03:02.221Z,21.59
2018-10-17T13:04:10.887Z,21.7
2018-10-17T13:05:19.808Z,21.54
2018-10-17T13:06:28.732Z,21.65
2018-10-17T13:07:37.373Z,21.58
2018-10-17T13:08:46.028Z,21.66
2018-10-17T13:09:54.678Z,21.56
2018-10-17T13:11:03.729Z,21.58
2018-10-17T13:12:12.731Z,21.7
2018-10-17T13:13:22.358Z,21.68
2018-10-17T13:14:31.268Z,21.69
2018-10-17T13:15:40.191Z,21.69
2018-10-17T13:16:48.835Z,21.58
2018-10-17T13:17:58.026Z,21.53
2018-10-17T13:19:06.764Z,21.63
2018-10-17T13:20:16.203Z,21.56
2018-10-17T13:21:24.850Z,21.58
2018-10-17T13:22:33.501Z,21.53
2018-10-17T13:23:42.150Z,21.54
2018-10-17T13:24:50.799Z,21.54
2018-10-17T13:25:59.452Z,21.48
2018-10-17T13:27:08.102Z,21.41
2018-10-17T13:28:16.752Z,21.38
2018-10-17T13:29:25.394Z,21.45
2018-10-17T13:30:34.058Z,21.43
2018-10-17T13:31:42.703Z,21.45
2018-10-17T13:32:51.355Z,21.56
2018-10-17T13:34:00.009Z,21.54
2018-10-17T13:35:09.391Z,21.56
2018-10-17T13:36:17.972Z,21.56
2018-10-17T13:37:26.626Z,21.5
2018-10-17T13:38:35.272Z,21.59
2018-10-17T13:39:43.925Z,21.6
2018-10-17T13:40:52.591Z,21.5
2018-10-17T13:42:01.266Z,21.54
2018-10-17T13:43:10.305Z,21.53
2018-10-17T13:44:18.901Z,21.54
2018-10-17T13:45:27.550Z,21.47
2018-10-17T13:46:36.204Z,21.45
2018-10-17T13:47:44.852Z,21.45
2018-10-17T13:48:53.559Z,21.4
2018-10-17T13:50:02.159Z,21.44
2018-10-17T13:51:10.805Z,21.38
2018-10-17T13:52:19.729Z,21.41
2018-10-17T13:53:28.375Z,21.48
2018-10-17T13:54:37.659Z,21.41
2018-10-17T13:55:46.941Z,21.4
2018-10-17T13:56:55.596Z,21.33
2018-10-17T13:58:04.315Z,21.38
2018-10-17T13:59:13.313Z,21.38
2018-10-17T14:00:22.528Z,21.38
2018-10-17T14:01:31.170Z,21.23
2018-10-17T14:02:39.826Z,21.25
2018-10-17T14:03:48.740Z,21.25
2018-10-17T14:04:57.391Z,21.25
2018-10-17T14:06:06.541Z,21.19
2018-10-17T14:07:15.227Z,21.13
2018-10-17T14:08:24.225Z,21.15
2018-10-17T14:09:32.874Z,21.15
2018-10-17T14:10:41.519Z,21.11
2018-10-17T14:11:50.172Z,21.04
2018-10-17T14:12:58.821Z,21.01
2018-10-17T14:14:07.742Z,21.01
2018-10-17T14:15:16.827Z,21.01
2018-10-17T14:16:25.416Z,21.03
2018-10-17T14:17:34.069Z,21
2018-10-17T14:18:42.716Z,20.88
2018-10-17T14:19:51.368Z,20.89
2018-10-17T14:21:00.055Z,20.88
2018-10-17T14:22:09.414Z,20.89
2018-10-17T14:23:18.129Z,20.9
2018-10-17T14:24:26.725Z,20.9
2018-10-17T14:25:35.634Z,21.03
2018-10-17T14:26:44.556Z,21.07
2018-10-17T14:27:53.197Z,21.07
2018-10-17T14:29:01.851Z,21.13
2018-10-17T14:30:10.543Z,21.13
2018-10-17T14:31:19.151Z,21.15
2018-10-17T14:32:28.073Z,21.25
2018-10-17T14:33:36.731Z,21.2
2018-10-17T14:34:45.912Z,21.28
2018-10-17T14:35:54.640Z,21.25
2018-10-17T14:37:03.583Z,21.14
2018-10-17T14:38:12.236Z,21.22
2018-10-17T14:39:21.702Z,21.14
2018-10-17T14:40:30.055Z,21.14
2018-10-17T14:41:38.927Z,21.17
2018-10-17T14:42:47.566Z,21.1
2018-10-17T14:43:56.225Z,21.15
2018-10-17T14:45:04.943Z,21.14
2018-10-17T14:46:13.975Z,21.15
2018-10-17T14:47:22.616Z,21.19
2018-10-17T14:48:31.272Z,21.08
2018-10-17T14:49:40.181Z,21.1